Terminal Aerodrome Forecast
Issued by NWS Cleveland, OH

Home | Current Version | Previous Version | Graphics & Text | Print | Product List | Glossary On
Versions: 1 2 3 4 5 6 7 8 9 10 11 12 13 14 15 16 17 18 19 20 21 22 23 24 25 26
000
FTUS41 KCLE 012300
TAFMFD
TAF
KMFD 012329Z 0200/0224 28005KT 3SM BR OVC015
      TEMPO 0201/0203 6SM BR
     FM020300 27006KT 6SM BR OVC012
     FM021400 27008KT P6SM SCT012 BKN035
     FM021600 28008KT P6SM SCT035 BKN250=

USA.gov is the U.S. government's official web portal to all federal, state and local government web resources and services.